Pettit, Oklahoma
Current Conditions -  °F | °C
As of 6:55 PM on Monday 26 Jan 2015 (Local Time) from KTQH Reporting Station
Clear Clear  
Wind Chill: 43°   Ceiling: Unl
Heat Index: 43°   Visibility: 10mi
Dew Point: 34°   Wind: 0mph
Humidity: 70%   Direction: NA
Pressure: 30.02"   Gusts: NA
Location:  35.7526°N, 95.024°W
Report Text: KTQH 270055Z AUTO 00000KT 10SM CLR 06/01 A3002 RMK AO2
Loading
Personal Weather Stations






























Interactive Weather Map New forecast layout! Learn more

10-Day Weather Forecast

Advertisements
Track Severe Weather on mobile